Time;durP1;ratioP1;P1;durP2;ratioP2;P2;SDS_P1;SDS_P2;PMS_P1;PMS_P2;Temp;Humidity;BMP_temperature;BMP_pressure;BME280_temperature;BME280_humidity;BME280_pressure;Samples;Min_cycle;Max_cycle;Signal;HPM_P1;HPM_P2
2020/12/15 00:01:29;;;;;;;12.57;9.07;;;5.00;99.30;;;;;;5043800;28;20215;-65
2020/12/15 00:03:55;;;;;;;9.03;8.10;;;5.00;99.20;;;;;;5041734;28;20219;-65
2020/12/15 00:06:20;;;;;;;9.40;8.37;;;5.00;99.00;;;;;;5040689;28;20253;-66
2020/12/15 00:08:46;;;;;;;9.17;8.27;;;5.00;98.90;;;;;;5044188;28;20276;-66
2020/12/15 00:11:18;;;;;;;12.33;8.63;;;5.10;98.80;;;;;;5038661;28;20227;-65
2020/12/15 00:13:45;;;;;;;11.93;10.73;;;5.10;98.70;;;;;;5045642;28;20183;-66
2020/12/15 00:16:16;;;;;;;10.33;7.97;;;5.10;98.80;;;;;;5039710;28;20581;-66
2020/12/15 00:18:42;;;;;;;11.13;9.00;;;5.20;98.40;;;;;;5023338;28;20213;-66
2020/12/15 00:21:07;;;;;;;9.43;8.30;;;5.20;98.10;;;;;;5042155;28;20277;-66
2020/12/15 00:23:33;;;;;;;9.00;8.10;;;5.20;98.00;;;;;;5040462;28;20683;-66
2020/12/15 00:25:59;;;;;;;8.37;7.50;;;5.10;98.10;;;;;;5042099;28;20193;-65
2020/12/15 00:28:24;;;;;;;8.53;7.73;;;5.10;98.30;;;;;;5057906;28;20186;-67
2020/12/15 00:30:50;;;;;;;9.30;8.40;;;5.10;98.20;;;;;;5054514;28;20204;-68
2020/12/15 00:33:15;;;;;;;8.47;7.57;;;5.10;98.40;;;;;;5048394;28;20205;-67
2020/12/15 00:35:41;;;;;;;9.00;8.10;;;5.10;98.10;;;;;;5039329;28;20177;-66
2020/12/15 00:38:07;;;;;;;8.33;7.50;;;5.10;97.80;;;;;;5041401;28;20786;-66
2020/12/15 00:40:32;;;;;;;8.27;7.47;;;5.10;98.00;;;;;;5045007;28;20713;-67
2020/12/15 00:42:58;;;;;;;8.90;7.73;;;5.10;98.30;;;;;;5040807;28;20547;-67
2020/12/15 00:45:23;;;;;;;11.47;10.00;;;5.10;98.60;;;;;;5043054;28;20213;-67
2020/12/15 00:47:51;;;;;;;11.53;10.33;;;5.10;98.80;;;;;;5041207;28;20195;-65
2020/12/15 00:50:16;;;;;;;9.70;8.70;;;5.10;98.80;;;;;;5043984;28;20219;-66
2020/12/15 00:52:42;;;;;;;9.17;8.20;;;5.00;99.30;;;;;;5037341;28;20260;-66
2020/12/15 00:55:08;;;;;;;9.23;7.90;;;5.00;98.80;;;;;;5045617;28;20187;-65
2020/12/15 00:57:33;;;;;;;10.00;7.63;;;5.00;98.80;;;;;;5047710;28;20264;-65
2020/12/15 00:59:59;;;;;;;8.60;7.70;;;5.00;98.60;;;;;;5040629;28;20206;-66
2020/12/15 01:02:25;;;;;;;9.73;7.77;;;4.90;98.70;;;;;;5034000;28;20179;-66
2020/12/15 01:04:50;;;;;;;7.83;7.10;;;4.90;98.90;;;;;;5042135;28;20229;-65
2020/12/15 01:07:16;;;;;;;8.53;6.87;;;4.90;99.00;;;;;;5037688;28;20197;-65
2020/12/15 01:09:41;;;;;;;6.77;6.13;;;4.90;98.70;;;;;;5037075;28;20194;-66
2020/12/15 01:12:11;;;;;;;7.90;7.10;;;5.00;98.60;;;;;;5042852;28;20204;-65
2020/12/15 01:14:37;;;;;;;8.80;7.90;;;5.00;98.50;;;;;;5036583;28;20184;-66
2020/12/15 01:17:05;;;;;;;8.33;7.53;;;4.90;98.60;;;;;;5037810;28;20184;-66
2020/12/15 01:19:31;;;;;;;8.07;7.23;;;4.90;98.70;;;;;;5042209;28;20182;-66
2020/12/15 01:21:57;;;;;;;8.97;8.07;;;4.80;98.90;;;;;;5046158;28;20203;-66
2020/12/15 01:24:23;;;;;;;9.50;8.03;;;4.80;98.90;;;;;;5039318;28;20185;-66
2020/12/15 01:26:48;;;;;;;8.77;7.87;;;4.80;99.00;;;;;;5042212;28;20202;-65
2020/12/15 01:29:14;;;;;;;9.23;7.70;;;4.80;99.10;;;;;;5040076;28;20273;-65
2020/12/15 01:31:39;;;;;;;9.50;8.10;;;4.80;99.00;;;;;;5038874;28;20216;-66
2020/12/15 01:34:05;;;;;;;8.70;7.60;;;4.80;98.80;;;;;;5038147;28;20209;-66
2020/12/15 01:36:32;;;;;;;8.17;7.37;;;4.90;98.40;;;;;;5038465;28;20607;-66
2020/12/15 01:38:58;;;;;;;9.73;7.60;;;4.90;98.10;;;;;;5041395;28;20183;-66
2020/12/15 01:41:24;;;;;;;8.33;7.33;;;5.00;97.80;;;;;;5036671;28;20597;-66
2020/12/15 01:43:58;;;;;;;8.30;7.40;;;5.00;97.80;;;;;;5037791;28;20187;-66
2020/12/15 01:46:25;;;;;;;9.00;8.20;;;5.00;98.00;;;;;;5041853;28;20177;-67
2020/12/15 01:48:52;;;;;;;11.63;7.90;;;5.10;98.10;;;;;;5038189;28;20179;-65
2020/12/15 01:51:18;;;;;;;8.67;7.87;;;5.10;98.50;;;;;;5043282;28;20281;-65
2020/12/15 01:53:45;;;;;;;10.30;8.27;;;5.10;98.70;;;;;;5021422;28;20668;-65
2020/12/15 01:56:11;;;;;;;9.23;8.33;;;5.10;98.70;;;;;;5022831;28;20174;-67
2020/12/15 01:58:40;;;;;;;9.03;8.13;;;5.10;98.70;;;;;;5038702;28;20796;-66
2020/12/15 02:01:09;;;;;;;11.07;8.80;;;5.10;98.60;;;;;;5041800;28;20288;-66
2020/12/15 02:03:35;;;;;;;9.23;8.33;;;5.10;98.70;;;;;;5036749;28;20197;-66
2020/12/15 02:06:01;;;;;;;10.93;9.00;;;5.10;99.00;;;;;;5041705;28;20186;-66
2020/12/15 02:08:26;;;;;;;9.60;8.53;;;5.10;98.60;;;;;;5043922;28;20187;-66
2020/12/15 02:10:52;;;;;;;10.13;8.20;;;5.10;98.50;;;;;;5042956;28;20720;-66
2020/12/15 02:13:22;;;;;;;8.70;7.73;;;5.00;98.60;;;;;;5047090;28;20232;-66
2020/12/15 02:15:47;;;;;;;10.27;8.30;;;5.00;98.90;;;;;;5043859;28;20198;-66
2020/12/15 02:18:13;;;;;;;9.13;8.10;;;5.00;99.00;;;;;;5041730;28;20175;-67
2020/12/15 02:20:38;;;;;;;11.13;7.93;;;5.00;98.80;;;;;;5045546;28;21834;-66
2020/12/15 02:23:04;;;;;;;10.67;8.90;;;5.00;98.70;;;;;;5044235;28;20273;-66
2020/12/15 02:25:30;;;;;;;10.30;8.93;;;5.00;98.70;;;;;;5043864;28;20210;-67
2020/12/15 02:27:55;;;;;;;9.60;8.27;;;5.00;99.10;;;;;;5026396;28;20190;-65
2020/12/15 02:30:21;;;;;;;8.63;7.67;;;5.00;99.10;;;;;;5041031;28;20210;-67
2020/12/15 02:32:47;;;;;;;9.53;8.30;;;5.10;99.20;;;;;;5044122;28;20265;-66
2020/12/15 02:35:12;;;;;;;8.60;7.70;;;5.10;99.00;;;;;;5044070;28;20781;-67
2020/12/15 02:37:38;;;;;;;9.20;7.80;;;5.10;98.90;;;;;;5046991;28;20779;-66
2020/12/15 02:40:06;;;;;;;9.33;7.97;;;5.10;99.00;;;;;;5039167;28;20244;-66
2020/12/15 02:42:32;;;;;;;8.90;8.00;;;5.20;98.90;;;;;;5047236;28;20191;-67
2020/12/15 02:44:59;;;;;;;9.47;8.57;;;5.20;99.20;;;;;;5038690;28;20214;-67
2020/12/15 02:47:25;;;;;;;10.23;9.20;;;5.20;99.20;;;;;;5043603;28;20193;-65
2020/12/15 02:49:51;;;;;;;10.87;9.77;;;5.20;99.00;;;;;;5039592;28;20204;-66
2020/12/15 02:52:19;;;;;;;11.97;9.33;;;5.10;98.80;;;;;;5046580;28;20617;-66
2020/12/15 02:54:46;;;;;;;11.43;9.30;;;5.00;98.90;;;;;;5026061;28;20192;-66
2020/12/15 02:57:11;;;;;;;12.33;10.13;;;4.90;99.20;;;;;;5047651;28;20175;-66
2020/12/15 02:59:37;;;;;;;10.33;9.30;;;4.90;99.60;;;;;;5041912;28;20190;-66
2020/12/15 03:02:03;;;;;;;13.17;9.27;;;4.80;99.80;;;;;;5045289;28;20736;-66
2020/12/15 03:04:28;;;;;;;9.07;8.17;;;4.80;99.70;;;;;;5039308;28;20657;-66
2020/12/15 03:06:54;;;;;;;8.67;7.77;;;4.70;99.90;;;;;;5043401;28;20225;-66
2020/12/15 03:09:19;;;;;;;8.13;7.20;;;4.70;99.90;;;;;;5038568;28;20228;-66
2020/12/15 03:11:45;;;;;;;7.73;6.93;;;4.80;99.50;;;;;;5036057;28;20215;-66
2020/12/15 03:14:11;;;;;;;8.23;7.17;;;4.90;99.00;;;;;;5044350;28;20530;-66
2020/12/15 03:16:36;;;;;;;9.00;7.90;;;5.00;98.60;;;;;;5037820;28;20193;-66
2020/12/15 03:19:02;;;;;;;9.13;7.83;;;5.10;98.30;;;;;;5043384;28;20189;-66
2020/12/15 03:21:28;;;;;;;8.00;7.20;;;5.20;98.00;;;;;;5035351;28;20209;-67
2020/12/15 03:23:54;;;;;;;8.70;7.40;;;5.20;97.80;;;;;;5042514;28;20189;-64
2020/12/15 03:26:20;;;;;;;9.87;8.23;;;5.20;97.80;;;;;;5046045;28;20178;-65
2020/12/15 03:28:46;;;;;;;10.17;9.17;;;5.30;97.80;;;;;;5041948;28;20188;-65
2020/12/15 03:31:12;;;;;;;9.53;8.53;;;5.30;98.40;;;;;;5039276;28;20204;-67
2020/12/15 03:33:38;;;;;;;12.43;8.83;;;5.20;98.70;;;;;;5028858;28;20218;-66
2020/12/15 03:36:04;;;;;;;10.60;9.03;;;5.20;98.90;;;;;;5033869;28;20187;-66
2020/12/15 03:38:29;;;;;;;9.63;8.60;;;5.20;98.90;;;;;;5042966;28;20188;-66
2020/12/15 03:40:55;;;;;;;10.50;9.33;;;5.20;98.70;;;;;;5037972;28;20217;-65
2020/12/15 03:43:21;;;;;;;12.90;11.50;;;5.20;99.00;;;;;;5039417;28;20215;-66
2020/12/15 03:45:46;;;;;;;14.37;11.90;;;5.20;99.10;;;;;;5042262;28;20206;-65
2020/12/15 03:48:14;;;;;;;12.63;11.33;;;5.10;99.20;;;;;;5036600;28;20222;-67
2020/12/15 03:50:40;;;;;;;14.50;11.83;;;5.00;99.40;;;;;;5039326;28;20210;-66
2020/12/15 03:53:05;;;;;;;13.63;11.47;;;4.90;99.80;;;;;;5035796;28;20248;-68
2020/12/15 03:55:31;;;;;;;13.40;11.17;;;4.80;99.90;;;;;;5036583;28;20183;-67
2020/12/15 03:57:56;;;;;;;17.80;12.00;;;4.80;99.90;;;;;;5044221;28;20190;-67
2020/12/15 04:00:23;;;;;;;11.80;10.17;;;4.80;99.90;;;;;;5040523;28;20205;-67
2020/12/15 04:02:49;;;;;;;11.87;10.17;;;4.90;99.90;;;;;;5042983;28;20186;-68
2020/12/15 04:05:15;;;;;;;10.60;9.27;;;4.90;99.90;;;;;;5048048;28;20574;-68
2020/12/15 04:07:41;;;;;;;12.43;9.40;;;5.00;99.80;;;;;;5040057;28;20210;-66
2020/12/15 04:10:07;;;;;;;11.03;9.73;;;5.00;99.60;;;;;;5042954;28;20211;-67
2020/12/15 04:12:33;;;;;;;12.17;10.30;;;5.00;99.60;;;;;;5035150;28;20214;-66
2020/12/15 04:14:59;;;;;;;14.20;11.17;;;4.90;99.80;;;;;;5046236;28;20185;-67
2020/12/15 04:17:24;;;;;;;11.47;10.27;;;4.90;99.90;;;;;;5039154;28;20648;-66
2020/12/15 04:19:50;;;;;;;13.20;11.27;;;4.90;99.60;;;;;;5040370;28;20657;-68
2020/12/15 04:22:15;;;;;;;12.37;10.23;;;4.90;99.70;;;;;;5039477;28;20245;-67
2020/12/15 04:24:41;;;;;;;12.37;10.30;;;4.90;99.50;;;;;;5020269;28;20196;-68
2020/12/15 04:27:07;;;;;;;11.30;9.50;;;4.90;99.40;;;;;;5038222;28;20189;-66
2020/12/15 04:29:32;;;;;;;12.77;9.83;;;4.90;99.00;;;;;;5043094;28;20224;-67
2020/12/15 04:31:58;;;;;;;11.47;9.87;;;5.00;98.80;;;;;;5044321;28;20241;-69
2020/12/15 04:34:24;;;;;;;11.63;9.97;;;5.00;99.00;;;;;;5061058;28;20192;-66
2020/12/15 04:36:50;;;;;;;10.20;9.13;;;5.00;99.10;;;;;;5053702;28;20244;-67
2020/12/15 04:39:16;;;;;;;11.57;9.23;;;5.00;98.90;;;;;;5045511;28;20195;-67
2020/12/15 04:41:42;;;;;;;10.57;9.20;;;5.10;98.50;;;;;;5042688;28;20635;-68
2020/12/15 04:44:08;;;;;;;11.00;9.10;;;5.10;98.50;;;;;;5040273;28;20196;-68
2020/12/15 04:46:51;;;;;;;9.60;8.60;;;5.10;98.70;;;;;;5047966;28;20891;-68
2020/12/15 04:49:21;;;;;;;9.90;8.33;;;5.20;98.20;;;;;;5042392;28;20552;-68
2020/12/15 04:52:07;;;;;;;9.97;8.50;;;5.20;98.20;;;;;;5043546;28;20245;-68
2020/12/15 04:54:34;;;;;;;10.47;9.00;;;5.30;98.60;;;;;;5036628;28;20246;-67
2020/12/15 04:57:02;;;;;;;10.87;8.30;;;5.30;98.90;;;;;;5044421;28;20204;-68
2020/12/15 04:59:32;;;;;;;7.73;6.93;;;5.40;98.20;;;;;;5040966;28;20184;-67
2020/12/15 05:01:59;;;;;;;8.37;7.57;;;5.40;97.20;;;;;;5042419;28;20728;-67
2020/12/15 05:04:26;;;;;;;8.97;7.67;;;5.50;97.30;;;;;;5041334;28;20190;-67
2020/12/15 05:06:54;;;;;;;13.00;7.30;;;5.50;97.60;;;;;;5041888;28;20748;-69
2020/12/15 05:09:28;;;;;;;8.80;7.53;;;5.40;97.70;;;;;;5034837;28;20196;-67
2020/12/15 05:11:54;;;;;;;8.57;7.47;;;5.40;97.90;;;;;;5037643;28;20207;-69
2020/12/15 05:14:20;;;;;;;8.30;7.07;;;5.40;98.00;;;;;;5040800;28;21035;-66
2020/12/15 05:16:45;;;;;;;8.83;7.93;;;5.40;97.70;;;;;;5039349;28;20270;-68
2020/12/15 05:19:11;;;;;;;12.40;8.60;;;5.40;98.00;;;;;;5042841;28;20202;-67
2020/12/15 05:21:37;;;;;;;8.87;8.03;;;5.30;98.30;;;;;;5021873;28;20197;-66
2020/12/15 05:24:08;;;;;;;9.90;8.90;;;5.20;98.80;;;;;;5036751;28;20187;-68
2020/12/15 05:26:34;;;;;;;11.47;8.87;;;5.20;98.90;;;;;;5025720;28;20270;-68
2020/12/15 05:29:04;;;;;;;9.90;8.90;;;5.10;98.80;;;;;;5041788;28;20279;-66
2020/12/15 05:31:30;;;;;;;10.23;9.07;;;5.10;99.20;;;;;;5040803;28;20237;-67
2020/12/15 05:33:58;;;;;;;12.40;9.87;;;5.10;99.20;;;;;;5036612;28;20567;-67
2020/12/15 05:36:24;;;;;;;11.83;9.03;;;5.10;99.40;;;;;;5045346;28;20241;-68
2020/12/15 05:39:07;;;;;;;10.73;9.63;;;5.20;99.40;;;;;;5047021;28;20190;-68
2020/12/15 05:41:34;;;;;;;10.90;9.33;;;5.20;99.20;;;;;;5040843;28;20213;-69
2020/12/15 05:44:01;;;;;;;10.63;8.50;;;5.30;99.10;;;;;;5039935;28;20283;-69
2020/12/15 05:46:28;;;;;;;10.80;9.33;;;5.40;98.70;;;;;;5044446;28;20227;-68
2020/12/15 05:49:02;;;;;;;10.47;9.43;;;5.40;98.60;;;;;;5040174;28;20191;-68
2020/12/15 05:51:44;;;;;;;11.03;8.70;;;5.40;98.60;;;;;;5041891;28;20206;-68
2020/12/15 05:54:14;;;;;;;10.07;8.57;;;5.40;98.30;;;;;;5046579;28;20867;-66
2020/12/15 05:56:41;;;;;;;8.77;7.87;;;5.50;98.10;;;;;;5045260;28;20603;-69
2020/12/15 05:59:20;;;;;;;8.43;7.50;;;5.50;98.10;;;;;;5046867;28;20550;-67
2020/12/15 06:01:51;;;;;;;8.27;7.47;;;5.50;97.50;;;;;;5039866;28;20210;-67
2020/12/15 06:04:17;;;;;;;9.80;8.80;;;5.50;97.80;;;;;;5041406;28;20559;-67
2020/12/15 06:06:44;;;;;;;11.83;8.70;;;5.60;97.90;;;;;;5046284;28;20618;-67
2020/12/15 06:09:15;;;;;;;10.77;9.67;;;5.50;97.60;;;;;;5037503;28;20191;-67
2020/12/15 06:11:43;;;;;;;11.17;9.70;;;5.50;97.90;;;;;;5039409;28;20591;-67
2020/12/15 06:14:10;;;;;;;10.53;9.40;;;5.40;98.10;;;;;;5037104;28;20791;-69
2020/12/15 06:16:37;;;;;;;10.57;8.37;;;5.40;97.90;;;;;;5040116;28;20642;-68
2020/12/15 06:19:11;;;;;;;10.83;8.60;;;5.50;97.80;;;;;;5043195;28;20180;-67
2020/12/15 06:21:47;;;;;;;9.87;8.70;;;5.40;97.70;;;;;;5041705;28;20576;-67
2020/12/15 06:24:25;;;;;;;15.80;12.73;;;5.50;97.60;;;;;;5018849;28;20218;-67
2020/12/15 06:26:55;;;;;;;14.10;12.37;;;5.50;97.50;;;;;;5035880;28;20190;-67
2020/12/15 06:29:34;;;;;;;11.40;9.60;;;5.50;97.50;;;;;;5040006;28;20190;-67
2020/12/15 06:32:00;;;;;;;10.17;8.70;;;5.60;97.70;;;;;;5036416;28;20335;-67
2020/12/15 06:34:31;;;;;;;14.80;11.57;;;5.60;97.70;;;;;;5042215;28;20192;-67
2020/12/15 06:36:58;;;;;;;12.00;9.03;;;5.60;97.40;;;;;;5038488;28;20297;-67
2020/12/15 06:39:25;;;;;;;8.63;7.83;;;5.50;97.30;;;;;;5042648;28;20184;-67
2020/12/15 06:42:06;;;;;;;9.33;8.30;;;5.60;97.60;;;;;;5040946;28;20227;-66
2020/12/15 06:44:36;;;;;;;10.17;8.97;;;5.70;97.30;;;;;;5041829;28;20193;-67
2020/12/15 06:47:04;;;;;;;10.13;9.00;;;5.70;96.80;;;;;;5041964;28;20881;-67
2020/12/15 06:49:31;;;;;;;9.80;8.80;;;5.80;96.80;;;;;;5042869;28;20199;-68
2020/12/15 06:52:03;;;;;;;10.17;7.87;;;5.80;96.80;;;;;;5046260;28;20210;-67
2020/12/15 06:54:30;;;;;;;11.63;9.40;;;5.80;96.70;;;;;;5043781;28;20198;-67
2020/12/15 06:57:11;;;;;;;8.90;7.90;;;5.80;96.90;;;;;;5044464;28;20661;-67
2020/12/15 06:59:41;;;;;;;10.20;8.33;;;5.80;97.00;;;;;;5046073;28;20301;-66
2020/12/15 07:02:08;;;;;;;10.30;7.63;;;5.80;96.10;;;;;;5047496;28;20278;-67
2020/12/15 07:04:49;;;;;;;9.30;6.87;;;5.80;96.10;;;;;;5046872;28;20214;-67
2020/12/15 07:07:16;;;;;;;9.13;7.23;;;5.80;95.80;;;;;;5046255;28;20192;-67
2020/12/15 07:09:43;;;;;;;9.00;6.27;;;5.80;95.50;;;;;;5046894;28;20233;-67
2020/12/15 07:12:13;;;;;;;7.27;6.33;;;5.80;95.20;;;;;;5046411;28;20290;-66
2020/12/15 07:14:42;;;;;;;7.00;6.30;;;5.90;95.40;;;;;;5048282;28;20224;-67
2020/12/15 07:17:08;;;;;;;8.60;6.83;;;5.90;95.30;;;;;;5042908;28;21679;-67
2020/12/15 07:19:34;;;;;;;8.07;6.50;;;5.90;95.30;;;;;;5046544;28;20310;-67
2020/12/15 07:22:02;;;;;;;8.37;6.97;;;5.90;95.50;;;;;;5046177;28;20202;-66
2020/12/15 07:24:28;;;;;;;9.67;7.20;;;5.90;95.90;;;;;;5044461;28;20207;-67
2020/12/15 07:26:54;;;;;;;14.67;9.73;;;5.90;95.80;;;;;;5043655;28;20232;-67
2020/12/15 07:29:19;;;;;;;16.27;11.53;;;5.80;96.20;;;;;;5043078;28;20779;-66
2020/12/15 07:31:45;;;;;;;11.70;8.13;;;5.80;96.50;;;;;;5041299;28;20213;-66
2020/12/15 07:34:12;;;;;;;8.30;7.50;;;5.80;96.40;;;;;;5044505;28;20248;-67
2020/12/15 07:36:41;;;;;;;9.30;7.67;;;5.80;96.10;;;;;;5043180;28;20195;-66
2020/12/15 07:39:08;;;;;;;9.90;8.90;;;5.80;96.50;;;;;;5042889;28;20575;-65
2020/12/15 07:41:36;;;;;;;7.87;7.00;;;5.90;96.50;;;;;;5040154;28;20226;-65
2020/12/15 07:44:08;;;;;;;124.60;54.90;;;6.00;96.30;;;;;;5045534;28;20200;-65
2020/12/15 07:46:35;;;;;;;53.57;26.47;;;6.10;96.20;;;;;;5038984;28;20203;-66
2020/12/15 07:49:00;;;;;;;70.17;34.73;;;6.10;95.90;;;;;;5041702;28;20184;-66
2020/12/15 07:51:26;;;;;;;31.47;21.57;;;6.20;96.00;;;;;;5040634;28;20634;-66
2020/12/15 07:53:54;;;;;;;72.67;36.80;;;6.20;95.80;;;;;;5028392;28;20184;-68
2020/12/15 07:56:20;;;;;;;36.83;21.73;;;6.20;95.90;;;;;;5040532;28;20199;-67
2020/12/15 07:58:49;;;;;;;17.80;14.00;;;6.20;94.90;;;;;;5040747;28;20181;-66
2020/12/15 08:01:31;;;;;;;12.17;9.23;;;6.20;95.10;;;;;;5044228;28;20216;-66
2020/12/15 08:04:08;;;;;;;13.37;11.93;;;6.20;95.10;;;;;;5049081;28;20197;-67
2020/12/15 08:06:36;;;;;;;13.47;9.90;;;6.10;95.50;;;;;;5041155;28;20191;-66
2020/12/15 08:09:03;;;;;;;12.17;9.67;;;6.10;95.60;;;;;;5037492;28;20267;-66
2020/12/15 08:11:29;;;;;;;9.30;7.57;;;6.10;95.60;;;;;;5046004;28;20199;-66
2020/12/15 08:13:55;;;;;;;12.00;9.13;;;6.10;94.80;;;;;;5043603;28;20186;-66
2020/12/15 08:16:22;;;;;;;10.47;8.47;;;6.10;94.60;;;;;;5055982;28;20190;-66
2020/12/15 08:18:49;;;;;;;8.30;6.53;;;6.20;94.80;;;;;;5054000;28;20185;-65
2020/12/15 08:21:16;;;;;;;8.23;6.77;;;6.20;94.60;;;;;;5060575;28;20224;-66
2020/12/15 08:23:48;;;;;;;8.17;7.03;;;6.30;94.50;;;;;;5049871;28;20574;-68
2020/12/15 08:26:17;;;;;;;7.53;6.83;;;6.30;94.60;;;;;;5046321;28;20187;-67
2020/12/15 08:28:44;;;;;;;7.80;7.00;;;6.30;94.70;;;;;;5038967;28;20566;-68
2020/12/15 08:31:10;;;;;;;11.17;7.77;;;6.30;94.70;;;;;;5037416;28;20691;-67
2020/12/15 08:33:37;;;;;;;13.90;8.90;;;6.30;95.30;;;;;;5037103;28;20215;-66
2020/12/15 08:36:04;;;;;;;12.17;8.50;;;6.30;95.30;;;;;;5044730;28;20243;-68
2020/12/15 08:38:30;;;;;;;15.27;9.97;;;6.20;95.70;;;;;;5044144;28;20184;-67
2020/12/15 08:41:00;;;;;;;11.03;9.83;;;6.20;95.40;;;;;;5043218;28;20246;-67
2020/12/15 08:43:26;;;;;;;11.43;9.27;;;6.10;95.40;;;;;;5042085;28;20190;-66
2020/12/15 08:45:52;;;;;;;10.27;8.57;;;6.10;95.60;;;;;;5040889;28;20657;-66
2020/12/15 08:48:20;;;;;;;11.50;9.80;;;6.10;95.90;;;;;;5049125;28;20222;-65
2020/12/15 08:50:46;;;;;;;9.70;8.20;;;6.10;96.10;;;;;;5042847;28;20581;-69
2020/12/15 08:53:12;;;;;;;16.40;9.70;;;6.00;96.10;;;;;;5050471;28;20691;-66
2020/12/15 08:55:39;;;;;;;13.00;10.50;;;6.00;96.00;;;;;;5049028;28;20719;-67
2020/12/15 08:58:07;;;;;;;14.77;9.43;;;6.00;96.10;;;;;;5048274;28;20322;-66
2020/12/15 09:00:34;;;;;;;12.70;9.17;;;6.00;96.10;;;;;;5036902;28;20217;-66
2020/12/15 09:03:26;;;;;;;12.47;9.60;;;6.00;96.30;;;;;;5047559;28;20659;-67
2020/12/15 09:05:57;;;;;;;9.97;8.93;;;6.00;96.60;;;;;;5041938;28;20289;-66
2020/12/15 09:08:27;;;;;;;10.10;8.30;;;6.00;96.80;;;;;;5042509;28;20197;-67
2020/12/15 09:10:55;;;;;;;14.57;8.27;;;6.00;96.70;;;;;;5043924;28;20713;-67
2020/12/15 09:13:22;;;;;;;10.83;7.73;;;6.10;96.20;;;;;;5037272;28;20212;-67
2020/12/15 09:15:51;;;;;;;10.50;7.80;;;6.20;95.90;;;;;;5045334;28;20205;-67
2020/12/15 09:18:27;;;;;;;10.97;7.53;;;6.30;95.80;;;;;;5037583;28;20250;-67
2020/12/15 09:20:53;;;;;;;10.27;8.43;;;6.50;95.60;;;;;;5041618;28;20216;-65
2020/12/15 09:23:25;;;;;;;9.90;7.97;;;6.60;95.70;;;;;;5041747;28;20718;-66
2020/12/15 09:25:52;;;;;;;11.80;8.80;;;6.70;95.30;;;;;;5046095;28;20678;-66
2020/12/15 09:28:26;;;;;;;9.33;8.33;;;6.80;95.20;;;;;;5043654;28;21009;-66
2020/12/15 09:30:52;;;;;;;10.90;8.47;;;6.80;95.20;;;;;;5044996;28;20654;-67
2020/12/15 09:33:17;;;;;;;11.00;7.93;;;6.80;94.80;;;;;;5043704;28;20239;-66
2020/12/15 09:35:44;;;;;;;9.13;7.40;;;6.90;95.00;;;;;;5041573;28;20180;-66
2020/12/15 09:38:09;;;;;;;12.00;9.07;;;6.90;95.10;;;;;;5045942;28;20262;-66
2020/12/15 09:40:35;;;;;;;11.17;9.30;;;7.00;94.90;;;;;;5043073;28;20880;-67
2020/12/15 09:43:01;;;;;;;12.17;9.30;;;7.00;94.80;;;;;;5042730;28;20191;-66
2020/12/15 09:45:26;;;;;;;11.23;9.30;;;6.90;94.90;;;;;;5038216;28;20206;-67
2020/12/15 09:47:52;;;;;;;14.60;9.37;;;6.90;95.10;;;;;;5040251;28;20199;-67
2020/12/15 09:50:17;;;;;;;14.03;10.50;;;6.90;95.10;;;;;;5037554;28;20425;-66
2020/12/15 09:52:43;;;;;;;10.60;9.50;;;7.00;94.80;;;;;;5042917;28;20614;-66
2020/12/15 09:55:09;;;;;;;11.47;8.67;;;7.00;94.90;;;;;;5034821;28;20198;-66
2020/12/15 09:57:34;;;;;;;13.23;9.07;;;7.00;95.40;;;;;;5039114;28;20181;-66
2020/12/15 10:00:00;;;;;;;10.57;8.80;;;7.00;95.60;;;;;;5037903;28;20210;-67
2020/12/15 10:02:26;;;;;;;17.60;13.40;;;7.00;95.70;;;;;;5040598;28;20541;-66
2020/12/15 10:04:51;;;;;;;19.30;14.87;;;6.90;95.90;;;;;;5036580;28;20187;-67
2020/12/15 10:07:18;;;;;;;11.50;9.87;;;6.90;95.80;;;;;;5039330;28;20275;-66
2020/12/15 10:09:43;;;;;;;10.83;8.77;;;6.90;96.10;;;;;;5034451;28;20206;-66
2020/12/15 10:12:09;;;;;;;12.30;10.77;;;6.90;96.10;;;;;;5036894;28;20220;-66
2020/12/15 10:14:35;;;;;;;11.27;9.03;;;7.00;95.80;;;;;;5040188;28;20192;-66
2020/12/15 10:17:01;;;;;;;11.23;9.67;;;7.00;95.70;;;;;;5038063;28;20183;-66
2020/12/15 10:19:26;;;;;;;13.03;8.93;;;7.10;95.60;;;;;;5039125;28;20188;-66
2020/12/15 10:21:56;;;;;;;11.60;8.53;;;7.30;95.20;;;;;;5037303;28;20211;-66
2020/12/15 10:24:22;;;;;;;9.17;8.03;;;7.40;95.20;;;;;;5028067;28;20217;-67
2020/12/15 10:26:47;;;;;;;13.83;11.20;;;7.50;94.80;;;;;;5049102;28;20279;-66
2020/12/15 10:29:13;;;;;;;24.77;15.23;;;7.70;94.00;;;;;;5047656;28;20188;-67
2020/12/15 10:31:39;;;;;;;18.97;11.97;;;7.90;93.40;;;;;;5048308;28;20306;-66
2020/12/15 10:34:04;;;;;;;9.80;8.57;;;8.10;92.90;;;;;;5041456;28;20232;-67
2020/12/15 10:36:30;;;;;;;12.63;9.07;;;8.30;92.30;;;;;;5041318;28;20181;-66
2020/12/15 10:38:56;;;;;;;12.13;8.73;;;8.50;92.20;;;;;;5047487;28;20436;-66
2020/12/15 10:41:26;;;;;;;10.80;9.33;;;8.60;92.60;;;;;;5048601;28;20345;-66
2020/12/15 10:43:52;;;;;;;10.50;8.00;;;8.80;91.90;;;;;;5025733;28;20271;-66
2020/12/15 10:46:26;;;;;;;10.83;7.87;;;8.80;92.00;;;;;;5049456;28;20305;-67
2020/12/15 10:48:52;;;;;;;9.93;8.30;;;8.80;92.40;;;;;;5043875;28;20182;-67
2020/12/15 10:51:18;;;;;;;9.27;8.33;;;8.80;92.50;;;;;;5045816;28;20238;-66
2020/12/15 10:53:44;;;;;;;8.63;7.73;;;9.00;92.60;;;;;;5043170;28;20844;-65
2020/12/15 10:56:13;;;;;;;11.57;8.60;;;8.90;92.70;;;;;;5043232;28;20215;-67
2020/12/15 10:58:39;;;;;;;10.07;8.40;;;9.00;92.70;;;;;;5031376;28;20288;-68
2020/12/15 11:01:07;;;;;;;10.50;8.30;;;9.10;93.10;;;;;;5052594;28;20569;-68
2020/12/15 11:03:32;;;;;;;14.60;12.60;;;9.20;93.30;;;;;;5048820;28;20188;-67
2020/12/15 11:05:58;;;;;;;18.77;13.27;;;9.50;92.90;;;;;;5040409;28;20190;-68
2020/12/15 11:08:23;;;;;;;17.43;13.07;;;9.60;92.30;;;;;;5045990;28;20179;-71
2020/12/15 11:10:49;;;;;;;13.37;10.70;;;9.70;92.20;;;;;;5044032;28;20219;-67
2020/12/15 11:13:15;;;;;;;14.83;10.80;;;9.80;91.90;;;;;;5045004;28;20674;-67
2020/12/15 11:15:40;;;;;;;16.03;10.87;;;9.80;91.80;;;;;;5039941;28;20183;-67
2020/12/15 11:18:06;;;;;;;18.90;11.50;;;9.90;91.70;;;;;;5044740;28;20418;-67
2020/12/15 11:20:33;;;;;;;22.30;12.97;;;10.00;91.20;;;;;;5041937;28;20199;-67
2020/12/15 11:23:00;;;;;;;18.93;12.07;;;10.20;91.50;;;;;;5034436;28;20192;-67
2020/12/15 11:25:25;;;;;;;12.90;11.10;;;10.50;91.40;;;;;;5040739;28;20797;-66
2020/12/15 11:27:51;;;;;;;33.33;23.30;;;10.80;90.80;;;;;;5047364;28;20184;-66
2020/12/15 11:30:17;;;;;;;29.90;23.63;;;11.10;89.30;;;;;;5028885;28;20664;-67
2020/12/15 11:32:42;;;;;;;35.00;24.20;;;11.30;85.70;;;;;;5034210;28;20215;-67
2020/12/15 11:35:08;;;;;;;45.38;31.23;;;11.20;85.40;;;;;;5037473;28;20498;-67
2020/12/15 11:37:40;;;;;;;11.82;9.93;;;11.40;84.10;;;;;;5031961;28;20180;-66
2020/12/15 11:40:07;;;;;;;10.57;8.95;;;11.30;83.10;;;;;;5038828;28;20208;-67
2020/12/15 11:42:32;;;;;;;15.63;12.55;;;11.20;83.10;;;;;;5044154;28;20267;-67
2020/12/15 11:44:58;;;;;;;14.57;10.60;;;11.30;84.70;;;;;;5041169;28;20275;-66
2020/12/15 11:47:23;;;;;;;10.27;9.27;;;11.20;85.50;;;;;;5041156;28;20191;-66
2020/12/15 11:49:50;;;;;;;15.07;12.25;;;10.90;85.60;;;;;;5038355;28;20824;-68
2020/12/15 11:52:15;;;;;;;12.43;10.93;;;10.80;88.10;;;;;;5032423;28;20211;-68
2020/12/15 11:54:41;;;;;;;26.67;17.73;;;10.70;90.00;;;;;;5035189;28;20342;-68
2020/12/15 11:57:08;;;;;;;13.87;11.70;;;10.70;90.50;;;;;;5043080;28;20183;-67
2020/12/15 11:59:34;;;;;;;18.42;11.82;;;10.70;90.70;;;;;;5033471;28;20213;-66
2020/12/15 12:02:00;;;;;;;12.05;9.60;;;10.60;90.80;;;;;;5048033;28;20231;-69
2020/12/15 12:04:25;;;;;;;12.27;9.13;;;10.60;91.20;;;;;;5033828;28;20691;-68
2020/12/15 12:06:51;;;;;;;10.40;8.33;;;10.60;91.20;;;;;;5034680;28;20195;-67
2020/12/15 12:09:16;;;;;;;8.97;8.07;;;10.40;91.20;;;;;;5038446;28;20192;-67
2020/12/15 12:11:42;;;;;;;10.67;8.43;;;10.30;91.20;;;;;;5046309;28;20249;-67
2020/12/15 12:14:07;;;;;;;9.20;8.23;;;10.20;90.50;;;;;;5047094;28;20257;-67
2020/12/15 12:16:33;;;;;;;11.70;9.83;;;10.10;91.40;;;;;;5048323;28;20563;-67
2020/12/15 12:18:59;;;;;;;11.33;9.17;;;9.80;93.30;;;;;;5038980;28;20172;-66
2020/12/15 12:21:24;;;;;;;10.63;8.70;;;9.80;93.50;;;;;;5046005;28;20207;-67
2020/12/15 12:23:50;;;;;;;13.03;9.20;;;9.70;92.50;;;;;;5048217;28;20223;-68
2020/12/15 12:26:16;;;;;;;10.67;8.37;;;9.60;93.10;;;;;;5045195;28;20179;-69
2020/12/15 12:28:42;;;;;;;11.23;8.23;;;9.50;93.40;;;;;;5041760;28;20202;-69
2020/12/15 12:31:11;;;;;;;12.73;8.60;;;9.40;93.50;;;;;;5045509;28;20716;-66
2020/12/15 12:33:37;;;;;;;9.27;8.37;;;9.30;93.70;;;;;;5033861;28;20223;-68
2020/12/15 12:36:02;;;;;;;11.67;9.53;;;9.20;94.20;;;;;;5041480;28;20191;-67
2020/12/15 12:38:28;;;;;;;9.77;8.77;;;9.10;95.00;;;;;;5039833;28;20204;-67
2020/12/15 12:40:53;;;;;;;10.33;8.90;;;9.10;95.50;;;;;;5037968;28;20211;-68
2020/12/15 12:43:19;;;;;;;14.23;9.03;;;9.00;95.80;;;;;;5039493;28;20192;-68
2020/12/15 12:45:45;;;;;;;9.40;8.40;;;9.00;95.70;;;;;;5041512;28;20187;-68
2020/12/15 12:48:11;;;;;;;10.67;8.67;;;9.00;95.90;;;;;;5038289;28;20184;-67